sensor_id;sensor_type;location;lat;lon;timestamp;temperature;humidity
23100;DHT22;53791;50.696;4.396;2022-08-25T00:02:07;22.60;99.90
23100;DHT22;53791;50.696;4.396;2022-08-25T00:04:38;22.50;99.90
23100;DHT22;53791;50.696;4.396;2022-08-25T00:07:06;22.60;99.90
23100;DHT22;53791;50.696;4.396;2022-08-25T00:09:35;22.50;99.90
23100;DHT22;53791;50.696;4.396;2022-08-25T00:12:04;22.40;99.90
23100;DHT22;53791;50.696;4.396;2022-08-25T00:14:35;22.40;99.90
23100;DHT22;53791;50.696;4.396;2022-08-25T00:17:04;22.40;99.90
23100;DHT22;53791;50.696;4.396;2022-08-25T00:19:34;22.40;99.90
23100;DHT22;53791;50.696;4.396;2022-08-25T00:22:03;22.50;99.90
23100;DHT22;53791;50.696;4.396;2022-08-25T00:24:33;22.40;99.90
23100;DHT22;53791;50.696;4.396;2022-08-25T00:27:00;22.30;99.90
23100;DHT22;53791;50.696;4.396;2022-08-25T00:29:28;22.40;99.90
23100;DHT22;53791;50.696;4.396;2022-08-25T00:31:56;22.20;99.90
23100;DHT22;53791;50.696;4.396;2022-08-25T00:34:31;22.20;99.90
23100;DHT22;53791;50.696;4.396;2022-08-25T00:36:55;22.30;99.90
23100;DHT22;53791;50.696;4.396;2022-08-25T00:39:24;22.20;99.90
23100;DHT22;53791;50.696;4.396;2022-08-25T00:41:54;22.10;99.90
23100;DHT22;53791;50.696;4.396;2022-08-25T00:44:26;22.10;99.90
23100;DHT22;53791;50.696;4.396;2022-08-25T00:46:56;22.10;99.90
23100;DHT22;53791;50.696;4.396;2022-08-25T00:49:46;21.90;99.90
23100;DHT22;53791;50.696;4.396;2022-08-25T00:52:17;21.90;99.90
23100;DHT22;53791;50.696;4.396;2022-08-25T00:54:52;21.90;99.90
23100;DHT22;53791;50.696;4.396;2022-08-25T00:57:13;21.90;99.90
23100;DHT22;53791;50.696;4.396;2022-08-25T00:59:41;22.10;99.90
23100;DHT22;53791;50.696;4.396;2022-08-25T01:02:11;22.20;99.90
23100;DHT22;53791;50.696;4.396;2022-08-25T01:04:46;22.00;99.90
23100;DHT22;53791;50.696;4.396;2022-08-25T01:07:11;21.90;99.90
23100;DHT22;53791;50.696;4.396;2022-08-25T01:09:38;21.90;99.90
23100;DHT22;53791;50.696;4.396;2022-08-25T01:12:07;21.90;99.90
23100;DHT22;53791;50.696;4.396;2022-08-25T01:14:36;21.90;99.90
23100;DHT22;53791;50.696;4.396;2022-08-25T01:17:05;21.80;99.90
23100;DHT22;53791;50.696;4.396;2022-08-25T01:19:34;21.70;99.90
23100;DHT22;53791;50.696;4.396;2022-08-25T01:22:03;21.60;99.90
23100;DHT22;53791;50.696;4.396;2022-08-25T01:24:46;21.60;99.90
23100;DHT22;53791;50.696;4.396;2022-08-25T01:27:13;21.60;99.90
23100;DHT22;53791;50.696;4.396;2022-08-25T01:29:41;21.70;99.90
23100;DHT22;53791;50.696;4.396;2022-08-25T01:32:11;21.70;99.90
23100;DHT22;53791;50.696;4.396;2022-08-25T01:34:42;21.70;99.90
23100;DHT22;53791;50.696;4.396;2022-08-25T01:37:12;21.60;99.90
23100;DHT22;53791;50.696;4.396;2022-08-25T01:39:40;21.60;99.90
23100;DHT22;53791;50.696;4.396;2022-08-25T01:44:56;21.50;99.90
23100;DHT22;53791;50.696;4.396;2022-08-25T01:47:25;21.50;99.90
23100;DHT22;53791;50.696;4.396;2022-08-25T01:49:53;21.60;99.90
23100;DHT22;53791;50.696;4.396;2022-08-25T01:52:29;21.50;99.90
23100;DHT22;53791;50.696;4.396;2022-08-25T01:55:00;21.60;99.90
23100;DHT22;53791;50.696;4.396;2022-08-25T01:57:29;21.50;99.90
23100;DHT22;53791;50.696;4.396;2022-08-25T01:59:57;21.40;99.90
23100;DHT22;53791;50.696;4.396;2022-08-25T02:02:27;21.30;99.90
23100;DHT22;53791;50.696;4.396;2022-08-25T02:04:55;21.30;99.90
23100;DHT22;53791;50.696;4.396;2022-08-25T02:07:22;21.40;99.90
23100;DHT22;53791;50.696;4.396;2022-08-25T02:09:50;21.50;99.90
23100;DHT22;53791;50.696;4.396;2022-08-25T02:12:17;21.40;99.90
23100;DHT22;53791;50.696;4.396;2022-08-25T02:14:45;21.40;99.90
23100;DHT22;53791;50.696;4.396;2022-08-25T02:17:15;21.30;99.90
23100;DHT22;53791;50.696;4.396;2022-08-25T02:19:42;21.40;99.90
23100;DHT22;53791;50.696;4.396;2022-08-25T02:22:10;21.40;99.90
23100;DHT22;53791;50.696;4.396;2022-08-25T02:24:37;21.30;99.90
23100;DHT22;53791;50.696;4.396;2022-08-25T02:27:05;21.20;99.90
23100;DHT22;53791;50.696;4.396;2022-08-25T02:29:38;21.20;99.90
23100;DHT22;53791;50.696;4.396;2022-08-25T02:32:04;21.10;99.90
23100;DHT22;53791;50.696;4.396;2022-08-25T02:34:35;21.10;99.90
23100;DHT22;53791;50.696;4.396;2022-08-25T02:37:01;21.10;99.90
23100;DHT22;53791;50.696;4.396;2022-08-25T02:39:28;21.00;99.90
23100;DHT22;53791;50.696;4.396;2022-08-25T02:41:56;21.00;99.90
23100;DHT22;53791;50.696;4.396;2022-08-25T02:44:25;20.90;99.90
23100;DHT22;53791;50.696;4.396;2022-08-25T02:46:52;20.90;99.90
23100;DHT22;53791;50.696;4.396;2022-08-25T02:49:20;20.90;99.90
23100;DHT22;53791;50.696;4.396;2022-08-25T02:51:49;20.80;99.90
23100;DHT22;53791;50.696;4.396;2022-08-25T02:54:18;20.80;99.90
23100;DHT22;53791;50.696;4.396;2022-08-25T02:56:46;20.70;99.90
23100;DHT22;53791;50.696;4.396;2022-08-25T02:59:13;20.70;99.90
23100;DHT22;53791;50.696;4.396;2022-08-25T03:01:44;20.60;99.90
23100;DHT22;53791;50.696;4.396;2022-08-25T03:04:12;20.70;99.90
23100;DHT22;53791;50.696;4.396;2022-08-25T03:06:39;20.70;99.90
23100;DHT22;53791;50.696;4.396;2022-08-25T03:09:07;20.80;99.90
23100;DHT22;53791;50.696;4.396;2022-08-25T03:11:37;20.80;99.90
23100;DHT22;53791;50.696;4.396;2022-08-25T03:14:07;20.80;99.90
23100;DHT22;53791;50.696;4.396;2022-08-25T03:16:36;20.80;99.90
23100;DHT22;53791;50.696;4.396;2022-08-25T03:19:05;20.80;99.90
23100;DHT22;53791;50.696;4.396;2022-08-25T03:21:33;20.80;99.90
23100;DHT22;53791;50.696;4.396;2022-08-25T03:24:00;20.80;99.90
23100;DHT22;53791;50.696;4.396;2022-08-25T03:26:28;21.00;99.90
23100;DHT22;53791;50.696;4.396;2022-08-25T03:29:13;21.10;99.90
23100;DHT22;53791;50.696;4.396;2022-08-25T03:31:43;21.10;99.90
23100;DHT22;53791;50.696;4.396;2022-08-25T03:34:12;21.00;99.90
23100;DHT22;53791;50.696;4.396;2022-08-25T03:36:48;21.00;99.90
23100;DHT22;53791;50.696;4.396;2022-08-25T03:39:11;21.00;99.90
23100;DHT22;53791;50.696;4.396;2022-08-25T03:41:39;20.90;99.90
23100;DHT22;53791;50.696;4.396;2022-08-25T03:44:08;21.00;99.90
23100;DHT22;53791;50.696;4.396;2022-08-25T03:46:50;21.00;99.90
23100;DHT22;53791;50.696;4.396;2022-08-25T03:49:22;21.10;99.90
23100;DHT22;53791;50.696;4.396;2022-08-25T03:51:52;21.10;99.90
23100;DHT22;53791;50.696;4.396;2022-08-25T03:54:22;20.90;99.90
23100;DHT22;53791;50.696;4.396;2022-08-25T03:56:50;20.80;99.90
23100;DHT22;53791;50.696;4.396;2022-08-25T03:59:18;20.70;99.90
23100;DHT22;53791;50.696;4.396;2022-08-25T04:01:46;20.60;99.90
23100;DHT22;53791;50.696;4.396;2022-08-25T04:04:15;20.50;99.90
23100;DHT22;53791;50.696;4.396;2022-08-25T04:06:43;20.50;99.90
23100;DHT22;53791;50.696;4.396;2022-08-25T04:09:13;20.40;99.90
23100;DHT22;53791;50.696;4.396;2022-08-25T04:11:43;20.40;99.90
23100;DHT22;53791;50.696;4.396;2022-08-25T04:14:10;20.50;99.90
23100;DHT22;53791;50.696;4.396;2022-08-25T04:16:38;20.60;99.90
23100;DHT22;53791;50.696;4.396;2022-08-25T04:19:07;20.70;99.90
23100;DHT22;53791;50.696;4.396;2022-08-25T04:21:39;20.80;99.90
23100;DHT22;53791;50.696;4.396;2022-08-25T04:24:09;20.70;99.90
23100;DHT22;53791;50.696;4.396;2022-08-25T04:26:45;20.80;99.90
23100;DHT22;53791;50.696;4.396;2022-08-25T04:29:17;20.80;99.90
23100;DHT22;53791;50.696;4.396;2022-08-25T04:31:46;20.80;99.90
23100;DHT22;53791;50.696;4.396;2022-08-25T04:34:17;20.80;99.90
23100;DHT22;53791;50.696;4.396;2022-08-25T04:36:45;20.70;99.90
23100;DHT22;53791;50.696;4.396;2022-08-25T04:39:14;20.80;99.90
23100;DHT22;53791;50.696;4.396;2022-08-25T04:41:42;20.70;99.90
23100;DHT22;53791;50.696;4.396;2022-08-25T04:44:12;20.70;99.90
23100;DHT22;53791;50.696;4.396;2022-08-25T04:46:41;20.70;99.90
23100;DHT22;53791;50.696;4.396;2022-08-25T04:49:12;20.70;99.90
23100;DHT22;53791;50.696;4.396;2022-08-25T04:51:40;20.80;99.90
23100;DHT22;53791;50.696;4.396;2022-08-25T04:54:12;20.80;99.90
23100;DHT22;53791;50.696;4.396;2022-08-25T04:56:42;20.80;99.90
23100;DHT22;53791;50.696;4.396;2022-08-25T04:59:13;20.80;99.90
23100;DHT22;53791;50.696;4.396;2022-08-25T05:01:42;20.70;99.90
23100;DHT22;53791;50.696;4.396;2022-08-25T05:04:15;20.70;99.90
23100;DHT22;53791;50.696;4.396;2022-08-25T05:06:42;20.80;99.90
23100;DHT22;53791;50.696;4.396;2022-08-25T05:09:10;20.90;99.90
23100;DHT22;53791;50.696;4.396;2022-08-25T05:11:37;20.70;99.90
23100;DHT22;53791;50.696;4.396;2022-08-25T05:14:05;20.80;99.90
23100;DHT22;53791;50.696;4.396;2022-08-25T05:16:34;20.80;99.90
23100;DHT22;53791;50.696;4.396;2022-08-25T05:19:02;20.70;99.90
23100;DHT22;53791;50.696;4.396;2022-08-25T05:21:30;20.70;99.90
23100;DHT22;53791;50.696;4.396;2022-08-25T05:24:03;20.70;99.90
23100;DHT22;53791;50.696;4.396;2022-08-25T05:26:33;20.90;99.90
23100;DHT22;53791;50.696;4.396;2022-08-25T05:29:06;20.80;99.90
23100;DHT22;53791;50.696;4.396;2022-08-25T05:31:33;20.80;99.90
23100;DHT22;53791;50.696;4.396;2022-08-25T05:34:06;20.80;99.90
23100;DHT22;53791;50.696;4.396;2022-08-25T05:36:40;20.90;99.90
23100;DHT22;53791;50.696;4.396;2022-08-25T05:39:06;20.90;99.90
23100;DHT22;53791;50.696;4.396;2022-08-25T05:41:34;21.10;99.90
23100;DHT22;53791;50.696;4.396;2022-08-25T05:44:01;21.30;99.90
23100;DHT22;53791;50.696;4.396;2022-08-25T05:46:29;21.50;99.90
23100;DHT22;53791;50.696;4.396;2022-08-25T05:48:56;21.50;99.90
23100;DHT22;53791;50.696;4.396;2022-08-25T05:51:24;21.60;99.90
23100;DHT22;53791;50.696;4.396;2022-08-25T05:53:52;21.60;99.90
23100;DHT22;53791;50.696;4.396;2022-08-25T05:56:20;21.70;99.90
23100;DHT22;53791;50.696;4.396;2022-08-25T05:58:47;21.90;99.90
23100;DHT22;53791;50.696;4.396;2022-08-25T06:01:21;21.90;99.90
23100;DHT22;53791;50.696;4.396;2022-08-25T06:04:07;22.20;99.90
23100;DHT22;53791;50.696;4.396;2022-08-25T06:06:37;22.40;99.90
23100;DHT22;53791;50.696;4.396;2022-08-25T06:09:04;22.70;99.90
23100;DHT22;53791;50.696;4.396;2022-08-25T06:11:34;22.90;99.90
23100;DHT22;53791;50.696;4.396;2022-08-25T06:14:03;23.10;99.90
23100;DHT22;53791;50.696;4.396;2022-08-25T06:16:38;23.40;99.90
23100;DHT22;53791;50.696;4.396;2022-08-25T06:19:04;23.60;99.90
23100;DHT22;53791;50.696;4.396;2022-08-25T06:21:37;23.90;99.90
23100;DHT22;53791;50.696;4.396;2022-08-25T06:24:01;24.20;99.90
23100;DHT22;53791;50.696;4.396;2022-08-25T06:26:30;24.40;99.90
23100;DHT22;53791;50.696;4.396;2022-08-25T06:28:58;24.60;99.90
23100;DHT22;53791;50.696;4.396;2022-08-25T06:31:32;24.70;99.90
23100;DHT22;53791;50.696;4.396;2022-08-25T06:33:56;24.70;99.90
23100;DHT22;53791;50.696;4.396;2022-08-25T06:36:24;24.60;99.90
23100;DHT22;53791;50.696;4.396;2022-08-25T06:38:53;24.30;99.90
23100;DHT22;53791;50.696;4.396;2022-08-25T06:41:21;24.20;99.90
23100;DHT22;53791;50.696;4.396;2022-08-25T06:43:48;24.00;99.90
23100;DHT22;53791;50.696;4.396;2022-08-25T06:46:19;23.80;99.90
23100;DHT22;53791;50.696;4.396;2022-08-25T06:48:48;23.80;99.90
23100;DHT22;53791;50.696;4.396;2022-08-25T06:51:19;24.10;99.90
23100;DHT22;53791;50.696;4.396;2022-08-25T06:53:49;24.40;99.90
23100;DHT22;53791;50.696;4.396;2022-08-25T06:56:19;24.90;99.90
23100;DHT22;53791;50.696;4.396;2022-08-25T06:58:49;25.30;99.90
23100;DHT22;53791;50.696;4.396;2022-08-25T07:01:35;25.90;99.90
23100;DHT22;53791;50.696;4.396;2022-08-25T07:03:49;26.40;99.90
23100;DHT22;53791;50.696;4.396;2022-08-25T07:06:19;26.80;99.90
23100;DHT22;53791;50.696;4.396;2022-08-25T07:08:46;26.90;99.90
23100;DHT22;53791;50.696;4.396;2022-08-25T07:11:37;27.20;99.90
23100;DHT22;53791;50.696;4.396;2022-08-25T07:16:40;27.40;99.90
23100;DHT22;53791;50.696;4.396;2022-08-25T07:19:07;27.60;99.90
23100;DHT22;53791;50.696;4.396;2022-08-25T07:21:46;28.10;99.90
23100;DHT22;53791;50.696;4.396;2022-08-25T07:24:09;28.30;99.90
23100;DHT22;53791;50.696;4.396;2022-08-25T07:26:39;28.50;99.90
23100;DHT22;53791;50.696;4.396;2022-08-25T07:29:11;28.60;99.90
23100;DHT22;53791;50.696;4.396;2022-08-25T07:32:00;28.80;99.90
23100;DHT22;53791;50.696;4.396;2022-08-25T07:34:33;29.00;99.90
23100;DHT22;53791;50.696;4.396;2022-08-25T07:37:18;29.30;99.90
23100;DHT22;53791;50.696;4.396;2022-08-25T07:39:49;29.90;99.90
23100;DHT22;53791;50.696;4.396;2022-08-25T07:42:19;30.20;99.90
23100;DHT22;53791;50.696;4.396;2022-08-25T07:44:49;30.50;99.90
23100;DHT22;53791;50.696;4.396;2022-08-25T07:47:28;31.10;99.90
23100;DHT22;53791;50.696;4.396;2022-08-25T07:50:03;31.50;99.90
23100;DHT22;53791;50.696;4.396;2022-08-25T07:55:14;32.10;99.90
23100;DHT22;53791;50.696;4.396;2022-08-25T07:57:45;32.70;99.90
23100;DHT22;53791;50.696;4.396;2022-08-25T08:00:16;32.60;99.90
23100;DHT22;53791;50.696;4.396;2022-08-25T08:02:45;32.80;99.90
23100;DHT22;53791;50.696;4.396;2022-08-25T08:05:13;32.80;99.90
23100;DHT22;53791;50.696;4.396;2022-08-25T08:07:43;32.80;99.90
23100;DHT22;53791;50.696;4.396;2022-08-25T08:10:14;32.90;99.90
23100;DHT22;53791;50.696;4.396;2022-08-25T08:12:43;32.30;99.90
23100;DHT22;53791;50.696;4.396;2022-08-25T08:15:18;32.70;99.90
23100;DHT22;53791;50.696;4.396;2022-08-25T08:17:42;33.10;99.90
23100;DHT22;53791;50.696;4.396;2022-08-25T08:20:10;32.90;99.90
23100;DHT22;53791;50.696;4.396;2022-08-25T08:22:41;33.30;99.90
23100;DHT22;53791;50.696;4.396;2022-08-25T08:25:17;33.90;99.90
23100;DHT22;53791;50.696;4.396;2022-08-25T08:27:44;34.70;99.90
23100;DHT22;53791;50.696;4.396;2022-08-25T08:30:13;34.80;99.90
23100;DHT22;53791;50.696;4.396;2022-08-25T08:32:42;34.70;99.90
23100;DHT22;53791;50.696;4.396;2022-08-25T08:35:17;34.90;99.90
23100;DHT22;53791;50.696;4.396;2022-08-25T08:37:42;35.50;99.90
23100;DHT22;53791;50.696;4.396;2022-08-25T08:40:13;35.70;99.90
23100;DHT22;53791;50.696;4.396;2022-08-25T08:43:08;36.00;99.90
23100;DHT22;53791;50.696;4.396;2022-08-25T08:45:33;35.70;99.90
23100;DHT22;53791;50.696;4.396;2022-08-25T08:48:39;35.50;99.90
23100;DHT22;53791;50.696;4.396;2022-08-25T08:51:22;34.60;99.90
23100;DHT22;53791;50.696;4.396;2022-08-25T08:54:12;34.80;99.90
23100;DHT22;53791;50.696;4.396;2022-08-25T08:56:41;35.30;99.90
23100;DHT22;53791;50.696;4.396;2022-08-25T08:59:18;34.80;99.90
23100;DHT22;53791;50.696;4.396;2022-08-25T09:01:54;34.90;99.90
23100;DHT22;53791;50.696;4.396;2022-08-25T09:07:16;35.90;99.90
23100;DHT22;53791;50.696;4.396;2022-08-25T09:09:41;36.00;99.90
23100;DHT22;53791;50.696;4.396;2022-08-25T09:12:11;36.40;99.90
23100;DHT22;53791;50.696;4.396;2022-08-25T09:15:06;36.70;99.90
23100;DHT22;53791;50.696;4.396;2022-08-25T09:23:35;36.70;99.90
23100;DHT22;53791;50.696;4.396;2022-08-25T09:26:23;37.50;99.90
23100;DHT22;53791;50.696;4.396;2022-08-25T09:28:58;37.70;99.90
23100;DHT22;53791;50.696;4.396;2022-08-25T09:31:26;37.20;99.90
23100;DHT22;53791;50.696;4.396;2022-08-25T09:33:57;37.70;99.90
23100;DHT22;53791;50.696;4.396;2022-08-25T09:36:27;38.10;99.90
23100;DHT22;53791;50.696;4.396;2022-08-25T09:39:01;38.40;99.90
23100;DHT22;53791;50.696;4.396;2022-08-25T09:41:49;38.70;99.90
23100;DHT22;53791;50.696;4.396;2022-08-25T09:44:31;39.00;99.90
23100;DHT22;53791;50.696;4.396;2022-08-25T09:47:04;38.80;99.90
23100;DHT22;53791;50.696;4.396;2022-08-25T09:49:35;38.80;99.90
23100;DHT22;53791;50.696;4.396;2022-08-25T09:52:24;38.90;99.90
23100;DHT22;53791;50.696;4.396;2022-08-25T09:54:54;38.90;99.90
23100;DHT22;53791;50.696;4.396;2022-08-25T09:57:35;38.90;99.90
23100;DHT22;53791;50.696;4.396;2022-08-25T10:00:19;39.10;99.90
23100;DHT22;53791;50.696;4.396;2022-08-25T10:02:59;38.20;99.90
23100;DHT22;53791;50.696;4.396;2022-08-25T10:05:20;38.00;99.90
23100;DHT22;53791;50.696;4.396;2022-08-25T10:07:56;38.20;99.90
23100;DHT22;53791;50.696;4.396;2022-08-25T10:10:32;38.30;99.90
23100;DHT22;53791;50.696;4.396;2022-08-25T10:13:01;38.50;99.90
23100;DHT22;53791;50.696;4.396;2022-08-25T10:15:33;38.70;99.90
23100;DHT22;53791;50.696;4.396;2022-08-25T10:18:28;38.90;99.90
23100;DHT22;53791;50.696;4.396;2022-08-25T10:21:14;38.30;99.90
23100;DHT22;53791;50.696;4.396;2022-08-25T10:23:43;37.80;99.90
23100;DHT22;53791;50.696;4.396;2022-08-25T10:26:20;38.00;99.90
23100;DHT22;53791;50.696;4.396;2022-08-25T10:29:09;38.10;99.90
23100;DHT22;53791;50.696;4.396;2022-08-25T10:31:45;38.20;99.90
23100;DHT22;53791;50.696;4.396;2022-08-25T10:39:56;38.30;99.90
23100;DHT22;53791;50.696;4.396;2022-08-25T10:45:28;37.60;99.90
23100;DHT22;53791;50.696;4.396;2022-08-25T10:51:23;37.50;99.90
23100;DHT22;53791;50.696;4.396;2022-08-25T10:53:59;36.60;99.90
23100;DHT22;53791;50.696;4.396;2022-08-25T10:56:40;36.40;99.90
23100;DHT22;53791;50.696;4.396;2022-08-25T10:59:31;36.50;99.90
23100;DHT22;53791;50.696;4.396;2022-08-25T11:07:45;37.30;99.90
23100;DHT22;53791;50.696;4.396;2022-08-25T11:10:19;37.80;99.90
23100;DHT22;53791;50.696;4.396;2022-08-25T11:12:59;38.10;99.90
23100;DHT22;53791;50.696;4.396;2022-08-25T11:15:28;38.00;99.90
23100;DHT22;53791;50.696;4.396;2022-08-25T11:18:02;38.20;99.90
23100;DHT22;53791;50.696;4.396;2022-08-25T11:21:07;38.20;99.90
23100;DHT22;53791;50.696;4.396;2022-08-25T11:23:40;38.00;99.90
23100;DHT22;53791;50.696;4.396;2022-08-25T11:26:12;35.90;99.90
23100;DHT22;53791;50.696;4.396;2022-08-25T11:28:53;36.20;99.90
23100;DHT22;53791;50.696;4.396;2022-08-25T11:31:11;36.40;99.90
23100;DHT22;53791;50.696;4.396;2022-08-25T11:33:40;36.60;99.90
23100;DHT22;53791;50.696;4.396;2022-08-25T11:36:29;35.90;99.90
23100;DHT22;53791;50.696;4.396;2022-08-25T11:39:06;35.90;99.90
23100;DHT22;53791;50.696;4.396;2022-08-25T11:41:47;35.70;99.90
23100;DHT22;53791;50.696;4.396;2022-08-25T11:49:50;35.90;99.90
23100;DHT22;53791;50.696;4.396;2022-08-25T11:52:44;35.80;99.90
23100;DHT22;53791;50.696;4.396;2022-08-25T11:55:18;35.70;99.90
23100;DHT22;53791;50.696;4.396;2022-08-25T11:57:50;35.40;99.90
23100;DHT22;53791;50.696;4.396;2022-08-25T12:00:40;35.30;99.90
23100;DHT22;53791;50.696;4.396;2022-08-25T12:06:30;35.80;99.90
23100;DHT22;53791;50.696;4.396;2022-08-25T12:17:36;34.50;99.90
23100;DHT22;53791;50.696;4.396;2022-08-25T12:19:49;34.20;99.90
23100;DHT22;53791;50.696;4.396;2022-08-25T12:24:54;34.00;99.90
23100;DHT22;53791;50.696;4.396;2022-08-25T12:27:40;33.90;99.90
23100;DHT22;53791;50.696;4.396;2022-08-25T12:30:21;34.30;99.90
23100;DHT22;53791;50.696;4.396;2022-08-25T12:35:55;35.20;99.90
23100;DHT22;53791;50.696;4.396;2022-08-25T12:38:03;35.40;99.90
23100;DHT22;53791;50.696;4.396;2022-08-25T12:40:37;34.80;99.90
23100;DHT22;53791;50.696;4.396;2022-08-25T12:43:12;34.60;99.90
23100;DHT22;53791;50.696;4.396;2022-08-25T12:45:43;34.70;99.90
23100;DHT22;53791;50.696;4.396;2022-08-25T12:48:40;34.80;99.90
23100;DHT22;53791;50.696;4.396;2022-08-25T12:51:05;34.70;99.90
23100;DHT22;53791;50.696;4.396;2022-08-25T12:53:47;34.40;99.90
23100;DHT22;53791;50.696;4.396;2022-08-25T12:56:31;34.40;99.90
23100;DHT22;53791;50.696;4.396;2022-08-25T12:59:09;34.50;99.90
23100;DHT22;53791;50.696;4.396;2022-08-25T13:10:11;35.10;99.90
23100;DHT22;53791;50.696;4.396;2022-08-25T13:15:12;35.90;99.90
23100;DHT22;53791;50.696;4.396;2022-08-25T13:17:40;36.30;99.90
23100;DHT22;53791;50.696;4.396;2022-08-25T13:20:26;36.60;99.90
23100;DHT22;53791;50.696;4.396;2022-08-25T13:22:50;36.70;99.90
23100;DHT22;53791;50.696;4.396;2022-08-25T13:25:21;36.80;99.90
23100;DHT22;53791;50.696;4.396;2022-08-25T13:27:57;37.20;99.90
23100;DHT22;53791;50.696;4.396;2022-08-25T13:30:28;37.40;99.90
23100;DHT22;53791;50.696;4.396;2022-08-25T13:32:58;37.60;99.90
23100;DHT22;53791;50.696;4.396;2022-08-25T13:35:29;37.80;99.90
23100;DHT22;53791;50.696;4.396;2022-08-25T13:38:16;37.50;99.90
23100;DHT22;53791;50.696;4.396;2022-08-25T13:40:45;36.70;99.90
23100;DHT22;53791;50.696;4.396;2022-08-25T13:43:13;36.50;99.90
23100;DHT22;53791;50.696;4.396;2022-08-25T13:45:43;36.40;99.90
23100;DHT22;53791;50.696;4.396;2022-08-25T13:48:13;36.20;99.90
23100;DHT22;53791;50.696;4.396;2022-08-25T13:50:42;36.00;99.90
23100;DHT22;53791;50.696;4.396;2022-08-25T13:53:15;35.50;99.90
23100;DHT22;53791;50.696;4.396;2022-08-25T13:55:59;35.10;99.90
23100;DHT22;53791;50.696;4.396;2022-08-25T13:58:32;34.70;99.90
23100;DHT22;53791;50.696;4.396;2022-08-25T14:01:08;34.50;99.90
23100;DHT22;53791;50.696;4.396;2022-08-25T14:03:39;34.30;99.90
23100;DHT22;53791;50.696;4.396;2022-08-25T14:09:04;35.20;99.90
23100;DHT22;53791;50.696;4.396;2022-08-25T14:11:39;35.40;99.90
23100;DHT22;53791;50.696;4.396;2022-08-25T14:14:08;35.90;99.90
23100;DHT22;53791;50.696;4.396;2022-08-25T14:16:36;36.30;99.90
23100;DHT22;53791;50.696;4.396;2022-08-25T14:19:07;36.80;99.90
23100;DHT22;53791;50.696;4.396;2022-08-25T14:21:38;36.90;99.90
23100;DHT22;53791;50.696;4.396;2022-08-25T14:24:04;37.10;99.90
23100;DHT22;53791;50.696;4.396;2022-08-25T14:26:31;36.90;99.90
23100;DHT22;53791;50.696;4.396;2022-08-25T14:28:59;36.60;99.90
23100;DHT22;53791;50.696;4.396;2022-08-25T14:31:29;36.60;99.90
23100;DHT22;53791;50.696;4.396;2022-08-25T14:34:06;36.70;99.90
23100;DHT22;53791;50.696;4.396;2022-08-25T14:36:34;36.40;99.90
23100;DHT22;53791;50.696;4.396;2022-08-25T14:39:02;36.40;99.90
23100;DHT22;53791;50.696;4.396;2022-08-25T14:41:35;35.70;99.90
23100;DHT22;53791;50.696;4.396;2022-08-25T14:44:04;35.10;99.90
23100;DHT22;53791;50.696;4.396;2022-08-25T14:46:35;34.60;99.90
23100;DHT22;53791;50.696;4.396;2022-08-25T14:49:05;34.30;99.90
23100;DHT22;53791;50.696;4.396;2022-08-25T14:51:35;34.20;99.90
23100;DHT22;53791;50.696;4.396;2022-08-25T14:54:09;34.00;99.90
23100;DHT22;53791;50.696;4.396;2022-08-25T14:56:36;33.90;99.90
23100;DHT22;53791;50.696;4.396;2022-08-25T14:59:05;33.60;99.90
23100;DHT22;53791;50.696;4.396;2022-08-25T15:01:33;33.50;99.90
23100;DHT22;53791;50.696;4.396;2022-08-25T15:04:06;33.30;99.90
23100;DHT22;53791;50.696;4.396;2022-08-25T15:06:35;33.10;99.90
23100;DHT22;53791;50.696;4.396;2022-08-25T15:09:04;32.90;99.90
23100;DHT22;53791;50.696;4.396;2022-08-25T15:11:44;32.80;99.90
23100;DHT22;53791;50.696;4.396;2022-08-25T15:14:14;32.80;99.90
23100;DHT22;53791;50.696;4.396;2022-08-25T15:16:50;32.60;99.90
23100;DHT22;53791;50.696;4.396;2022-08-25T15:19:25;32.50;99.90
23100;DHT22;53791;50.696;4.396;2022-08-25T15:21:49;32.30;99.90
23100;DHT22;53791;50.696;4.396;2022-08-25T15:24:19;32.10;99.90
23100;DHT22;53791;50.696;4.396;2022-08-25T15:26:55;31.90;99.90
23100;DHT22;53791;50.696;4.396;2022-08-25T15:29:20;31.80;99.90
23100;DHT22;53791;50.696;4.396;2022-08-25T15:31:49;31.70;99.90
23100;DHT22;53791;50.696;4.396;2022-08-25T15:34:20;31.70;99.90
23100;DHT22;53791;50.696;4.396;2022-08-25T15:36:49;31.70;99.90
23100;DHT22;53791;50.696;4.396;2022-08-25T15:39:17;31.60;99.90
23100;DHT22;53791;50.696;4.396;2022-08-25T15:41:46;31.80;99.90
23100;DHT22;53791;50.696;4.396;2022-08-25T15:44:18;32.10;99.90
23100;DHT22;53791;50.696;4.396;2022-08-25T15:46:46;32.30;99.90
23100;DHT22;53791;50.696;4.396;2022-08-25T15:49:13;32.50;99.90
23100;DHT22;53791;50.696;4.396;2022-08-25T15:51:41;32.40;99.90
23100;DHT22;53791;50.696;4.396;2022-08-25T15:54:08;32.50;99.90
23100;DHT22;53791;50.696;4.396;2022-08-25T15:56:36;32.30;99.90
23100;DHT22;53791;50.696;4.396;2022-08-25T15:59:04;31.90;99.90
23100;DHT22;53791;50.696;4.396;2022-08-25T16:01:32;31.60;99.90
23100;DHT22;53791;50.696;4.396;2022-08-25T16:03:59;31.40;99.90
23100;DHT22;53791;50.696;4.396;2022-08-25T16:06:28;31.20;99.90
23100;DHT22;53791;50.696;4.396;2022-08-25T16:08:57;31.20;99.90
23100;DHT22;53791;50.696;4.396;2022-08-25T16:11:31;31.20;99.90
23100;DHT22;53791;50.696;4.396;2022-08-25T16:14:10;30.90;99.90
23100;DHT22;53791;50.696;4.396;2022-08-25T16:16:38;30.90;99.90
23100;DHT22;53791;50.696;4.396;2022-08-25T16:19:05;30.80;99.90
23100;DHT22;53791;50.696;4.396;2022-08-25T16:21:34;30.80;99.90
23100;DHT22;53791;50.696;4.396;2022-08-25T16:24:05;30.80;99.90
23100;DHT22;53791;50.696;4.396;2022-08-25T16:26:34;30.70;99.90
23100;DHT22;53791;50.696;4.396;2022-08-25T16:29:04;30.70;99.90
23100;DHT22;53791;50.696;4.396;2022-08-25T16:31:32;30.50;99.90
23100;DHT22;53791;50.696;4.396;2022-08-25T16:34:00;30.30;99.90
23100;DHT22;53791;50.696;4.396;2022-08-25T16:36:29;30.10;99.90
23100;DHT22;53791;50.696;4.396;2022-08-25T16:38:57;30.00;99.90
23100;DHT22;53791;50.696;4.396;2022-08-25T16:41:29;29.80;99.90
23100;DHT22;53791;50.696;4.396;2022-08-25T16:44:00;29.60;99.90
23100;DHT22;53791;50.696;4.396;2022-08-25T16:49:03;29.50;99.90
23100;DHT22;53791;50.696;4.396;2022-08-25T16:51:32;29.40;99.90
23100;DHT22;53791;50.696;4.396;2022-08-25T16:53:59;29.30;99.90
23100;DHT22;53791;50.696;4.396;2022-08-25T16:56:44;29.10;99.90
23100;DHT22;53791;50.696;4.396;2022-08-25T16:59:12;29.00;99.90
23100;DHT22;53791;50.696;4.396;2022-08-25T17:04:28;28.80;99.90
23100;DHT22;53791;50.696;4.396;2022-08-25T17:06:56;28.80;99.90
23100;DHT22;53791;50.696;4.396;2022-08-25T17:09:25;28.70;99.90
23100;DHT22;53791;50.696;4.396;2022-08-25T17:11:52;28.50;99.90
23100;DHT22;53791;50.696;4.396;2022-08-25T17:14:22;28.50;99.90